Time,TemperatureF,DewpointF,PressureIn,WindDirection,WindDirectionDegrees,WindSpeedMPH,WindSpeedGustMPH,Humidity,HourlyPrecipIn,Conditions,Clouds,dailyrainin,SoftwareType,DateUTC
2013-10-03 00:11:00,59.6,53.0,30.02,SSW,207,0.0,-999.0,80,-99.99,,,0.00,weatherlink.com 1.10,2013-10-03 04:11:00,
2013-10-03 00:26:00,58.3,53.0,30.01,SSW,207,0.0,-999.0,81,-99.99,,,0.00,weatherlink.com 1.10,2013-10-03 04:26:00,
2013-10-03 00:41:00,57.0,52.0,30.01,SSW,207,0.0,-999.0,83,-99.99,,,0.00,weatherlink.com 1.10,2013-10-03 04:41:00,
2013-10-03 00:56:00,56.0,52.0,30.01,SSW,207,0.0,-999.0,85,-99.99,,,0.00,weatherlink.com 1.10,2013-10-03 04:56:00,
2013-10-03 01:11:00,55.5,51.0,30.02,SSW,207,0.0,-999.0,86,-99.99,,,0.00,weatherlink.com 1.10,2013-10-03 05:11:00,
2013-10-03 01:26:00,55.0,51.0,30.02,SSW,207,0.0,-999.0,87,-99.99,,,0.00,weatherlink.com 1.10,2013-10-03 05:26:00,
2013-10-03 01:41:00,54.6,51.0,30.03,SSW,207,0.0,-999.0,88,-99.99,,,0.00,weatherlink.com 1.10,2013-10-03 05:41:00,
2013-10-03 01:56:00,54.3,51.0,30.03,SSW,207,0.0,-999.0,88,-99.99,,,0.00,weatherlink.com 1.10,2013-10-03 05:56:00,
2013-10-03 02:11:00,54.0,51.0,30.03,SSW,207,0.0,-999.0,89,-99.99,,,0.00,weatherlink.com 1.10,2013-10-03 06:11:00,
2013-10-03 02:26:00,53.7,51.0,30.03,SSW,207,0.0,-999.0,90,-99.99,,,0.00,weatherlink.com 1.10,2013-10-03 06:26:00,
2013-10-03 02:41:00,53.7,51.0,30.03,SSW,207,0.0,-999.0,91,-99.99,,,0.00,weatherlink.com 1.10,2013-10-03 06:41:00,
2013-10-03 02:56:00,53.3,51.0,30.03,SSW,207,0.0,-999.0,91,-99.99,,,0.00,weatherlink.com 1.10,2013-10-03 06:56:00,
2013-10-03 03:11:00,53.0,51.0,30.04,SSW,207,0.0,-999.0,91,-99.99,,,0.00,weatherlink.com 1.10,2013-10-03 07:11:00,
2013-10-03 03:26:00,53.4,51.0,30.04,SSW,207,0.0,-999.0,91,-99.99,,,0.00,weatherlink.com 1.10,2013-10-03 07:26:00,
2013-10-03 03:41:00,53.8,51.0,30.04,SSW,207,0.0,-999.0,91,-99.99,,,0.00,weatherlink.com 1.10,2013-10-03 07:41:00,
2013-10-03 03:57:00,54.7,51.0,30.04,SSW,207,0.0,-999.0,88,-99.99,,,0.00,weatherlink.com 1.10,2013-10-03 07:57:00,
2013-10-03 04:11:00,54.9,51.0,30.04,SSW,207,0.0,-999.0,87,-99.99,,,0.00,weatherlink.com 1.10,2013-10-03 08:11:00,
2013-10-03 04:27:00,54.5,50.0,30.04,SSW,207,0.0,-999.0,86,-99.99,,,0.00,weatherlink.com 1.10,2013-10-03 08:27:00,
2013-10-03 04:41:00,54.4,51.0,30.04,SSW,206,0.0,-999.0,87,-99.99,,,0.00,weatherlink.com 1.10,2013-10-03 08:41:00,
2013-10-03 04:56:00,55.0,51.0,30.04,SSW,206,0.0,-999.0,85,-99.99,,,0.00,weatherlink.com 1.10,2013-10-03 08:56:00,
2013-10-03 05:11:00,55.3,50.0,30.04,ENE,76,0.0,-999.0,83,-99.99,,,0.00,weatherlink.com 1.10,2013-10-03 09:11:00,
2013-10-03 05:27:00,55.2,50.0,30.04,NE,56,0.0,-999.0,82,-99.99,,,0.00,weatherlink.com 1.10,2013-10-03 09:27:00,
2013-10-03 05:41:00,54.9,50.0,30.05,ENE,57,0.0,-999.0,83,-99.99,,,0.00,weatherlink.com 1.10,2013-10-03 09:41:00,
2013-10-03 05:57:00,53.9,49.0,30.05,ENE,57,0.0,-999.0,84,-99.99,,,0.00,weatherlink.com 1.10,2013-10-03 09:57:00,
2013-10-03 06:12:00,52.6,49.0,30.06,NE,56,0.0,-999.0,86,-99.99,,,0.00,weatherlink.com 1.10,2013-10-03 10:12:00,
2013-10-03 06:27:00,51.7,48.0,30.06,NE,56,0.0,-999.0,87,-99.99,,,0.00,weatherlink.com 1.10,2013-10-03 10:27:00,
2013-10-03 06:42:00,50.8,48.0,30.07,NE,56,0.0,-999.0,89,-99.99,,,0.00,weatherlink.com 1.10,2013-10-03 10:42:00,
2013-10-03 06:57:00,49.9,47.0,30.07,NE,56,0.0,-999.0,90,-99.99,,,0.00,weatherlink.com 1.10,2013-10-03 10:57:00,
2013-10-03 07:12:00,50.1,48.0,30.08,NE,56,0.0,-999.0,91,-99.99,,,0.00,weatherlink.com 1.10,2013-10-03 11:12:00,
2013-10-03 07:27:00,50.9,48.0,30.08,East,82,0.0,-999.0,91,-99.99,,,0.00,weatherlink.com 1.10,2013-10-03 11:27:00,
2013-10-03 07:42:00,51.0,48.0,30.09,East,83,0.0,-999.0,90,-99.99,,,0.00,weatherlink.com 1.10,2013-10-03 11:42:00,
2013-10-03 07:57:00,51.2,49.0,30.09,East,82,0.0,-999.0,91,-99.99,,,0.00,weatherlink.com 1.10,2013-10-03 11:57:00,
2013-10-03 08:12:00,52.2,49.0,30.09,East,82,0.0,-999.0,90,-99.99,,,0.00,weatherlink.com 1.10,2013-10-03 12:12:00,
2013-10-03 08:27:00,53.0,50.0,30.09,East,82,0.0,-999.0,90,-99.99,,,0.00,weatherlink.com 1.10,2013-10-03 12:27:00,
2013-10-03 08:42:00,54.2,51.0,30.10,NE,55,0.0,-999.0,88,-99.99,,,0.00,weatherlink.com 1.10,2013-10-03 12:42:00,
2013-10-03 08:57:00,55.9,51.0,30.10,ENE,60,4.0,-999.0,82,-99.99,,,0.00,weatherlink.com 1.10,2013-10-03 12:57:00,
2013-10-03 09:12:00,57.1,51.0,30.10,NNE,13,0.0,-999.0,80,-99.99,,,0.00,weatherlink.com 1.10,2013-10-03 13:12:00,
2013-10-03 09:27:00,57.9,51.0,30.10,NE,50,0.0,-999.0,78,-99.99,,,0.00,weatherlink.com 1.10,2013-10-03 13:27:00,
2013-10-03 09:42:00,60.3,53.0,30.11,NE,40,0.0,-999.0,76,-99.99,,,0.00,weatherlink.com 1.10,2013-10-03 13:42:00,
2013-10-03 09:57:00,60.5,52.0,30.11,ENE,57,0.0,-999.0,73,-99.99,,,0.00,weatherlink.com 1.10,2013-10-03 13:57:00,
2013-10-03 10:13:00,63.4,53.0,30.11,NE,50,0.0,-999.0,70,-99.99,,,0.00,weatherlink.com 1.10,2013-10-03 14:13:00,
2013-10-03 10:28:00,64.2,52.0,30.11,South,180,0.0,-999.0,65,-99.99,,,0.00,weatherlink.com 1.10,2013-10-03 14:28:00,
2013-10-03 10:43:00,65.2,53.0,30.11,South,176,0.0,-999.0,64,-99.99,,,0.00,weatherlink.com 1.10,2013-10-03 14:43:00,
2013-10-03 10:58:00,65.6,52.0,30.11,SE,139,0.0,-999.0,61,-99.99,,,0.00,weatherlink.com 1.10,2013-10-03 14:58:00,
2013-10-03 11:13:00,66.2,52.0,30.11,ENE,76,4.0,-999.0,60,-99.99,,,0.00,weatherlink.com 1.10,2013-10-03 15:13:00,
2013-10-03 11:28:00,67.4,52.0,30.10,North,5,0.0,-999.0,59,-99.99,,,0.00,weatherlink.com 1.10,2013-10-03 15:28:00,
2013-10-03 11:43:00,68.3,53.0,30.10,East,92,1.0,-999.0,59,-99.99,,,0.00,weatherlink.com 1.10,2013-10-03 15:43:00,
2013-10-03 11:58:00,67.6,53.0,30.10,NE,35,0.0,-999.0,59,-99.99,,,0.00,weatherlink.com 1.10,2013-10-03 15:58:00,
2013-10-03 12:14:00,69.9,53.0,30.09,SW,225,0.0,-999.0,56,-99.99,,,0.00,weatherlink.com 1.10,2013-10-03 16:14:00,
2013-10-03 12:28:00,70.2,54.0,30.09,SSW,194,0.0,-999.0,57,-99.99,,,0.00,weatherlink.com 1.10,2013-10-03 16:28:00,
2013-10-03 12:43:00,71.9,54.0,30.08,South,173,0.0,-999.0,53,-99.99,,,0.00,weatherlink.com 1.10,2013-10-03 16:43:00,
2013-10-03 12:58:00,69.6,52.0,30.07,NE,49,0.0,-999.0,54,-99.99,,,0.00,weatherlink.com 1.10,2013-10-03 16:58:00,
2013-10-03 13:14:00,69.8,53.0,30.06,ENE,67,0.0,-999.0,55,-99.99,,,0.00,weatherlink.com 1.10,2013-10-03 17:14:00,
2013-10-03 13:29:00,74.3,54.0,30.05,South,180,0.0,-999.0,50,-99.99,,,0.00,weatherlink.com 1.10,2013-10-03 17:29:00,
2013-10-03 13:43:00,71.7,53.0,30.05,East,100,0.0,-999.0,52,-99.99,,,0.00,weatherlink.com 1.10,2013-10-03 17:43:00,
2013-10-03 13:58:00,72.1,53.0,30.04,South,170,0.0,-999.0,52,-99.99,,,0.00,weatherlink.com 1.10,2013-10-03 17:58:00,
2013-10-03 14:13:00,71.7,55.0,30.04,South,170,0.0,-999.0,55,-99.99,,,0.00,weatherlink.com 1.10,2013-10-03 18:13:00,
2013-10-03 14:28:00,72.4,56.0,30.03,South,170,0.0,-999.0,57,-99.99,,,0.00,weatherlink.com 1.10,2013-10-03 18:28:00,
2013-10-03 14:43:00,72.5,55.0,30.03,South,170,0.0,-999.0,54,-99.99,,,0.00,weatherlink.com 1.10,2013-10-03 18:43:00,
2013-10-03 14:58:00,72.0,55.0,30.03,South,170,0.0,-999.0,55,-99.99,,,0.00,weatherlink.com 1.10,2013-10-03 18:58:00,
2013-10-03 15:13:00,70.7,56.0,30.02,South,170,0.0,-999.0,59,-99.99,,,0.00,weatherlink.com 1.10,2013-10-03 19:13:00,
2013-10-03 15:28:00,69.4,56.0,30.02,South,170,0.0,-999.0,63,-99.99,,,0.00,weatherlink.com 1.10,2013-10-03 19:28:00,
2013-10-03 15:44:00,70.2,56.0,30.02,South,170,0.0,-999.0,61,-99.99,,,0.00,weatherlink.com 1.10,2013-10-03 19:44:00,
2013-10-03 15:59:00,71.4,56.0,30.02,South,170,0.0,-999.0,59,-99.99,,,0.00,weatherlink.com 1.10,2013-10-03 19:59:00,
2013-10-03 16:14:00,72.0,54.0,30.02,South,170,0.0,-999.0,54,-99.99,,,0.00,weatherlink.com 1.10,2013-10-03 20:14:00,
2013-10-03 16:29:00,71.9,55.0,30.02,South,170,0.0,-999.0,55,-99.99,,,0.00,weatherlink.com 1.10,2013-10-03 20:29:00,
2013-10-03 16:44:00,72.6,54.0,30.01,South,170,0.0,-999.0,53,-99.99,,,0.00,weatherlink.com 1.10,2013-10-03 20:44:00,
2013-10-03 16:59:00,71.9,55.0,30.02,South,170,0.0,-999.0,55,-99.99,,,0.00,weatherlink.com 1.10,2013-10-03 20:59:00,
2013-10-03 17:14:00,70.3,56.0,30.02,South,170,0.0,-999.0,60,-99.99,,,0.00,weatherlink.com 1.10,2013-10-03 21:14:00,
2013-10-03 17:29:00,69.3,57.0,30.02,South,170,0.0,-999.0,65,-99.99,,,0.00,weatherlink.com 1.10,2013-10-03 21:29:00,
2013-10-03 17:44:00,68.6,58.0,30.02,South,170,0.0,-999.0,70,-99.99,,,0.00,weatherlink.com 1.10,2013-10-03 21:44:00,
2013-10-03 17:59:00,68.1,59.0,30.02,South,170,0.0,-999.0,72,-99.99,,,0.00,weatherlink.com 1.10,2013-10-03 21:59:00,
2013-10-03 18:14:00,66.6,58.0,30.02,South,170,0.0,-999.0,74,-99.99,,,0.00,weatherlink.com 1.10,2013-10-03 22:14:00,
2013-10-03 18:29:00,65.2,57.0,30.02,South,170,0.0,-999.0,76,-99.99,,,0.00,weatherlink.com 1.10,2013-10-03 22:29:00,
2013-10-03 18:44:00,63.9,57.0,30.03,South,170,0.0,-999.0,78,-99.99,,,0.00,weatherlink.com 1.10,2013-10-03 22:44:00,
2013-10-03 18:59:00,63.1,57.0,30.03,South,170,0.0,-999.0,79,-99.99,,,0.00,weatherlink.com 1.10,2013-10-03 22:59:00,
2013-10-03 19:14:00,62.6,57.0,30.03,South,170,0.0,-999.0,81,-99.99,,,0.00,weatherlink.com 1.10,2013-10-03 23:14:00,
2013-10-03 19:29:00,62.5,56.0,30.03,South,170,0.0,-999.0,80,-99.99,,,0.00,weatherlink.com 1.10,2013-10-03 23:29:00,
2013-10-03 19:44:00,62.2,56.0,30.03,South,170,0.0,-999.0,80,-99.99,,,0.00,weatherlink.com 1.10,2013-10-03 23:44:00,
2013-10-03 20:00:00,62.5,56.0,30.04,South,170,0.0,-999.0,79,-99.99,,,0.00,weatherlink.com 1.10,2013-10-04 00:00:00,
2013-10-03 20:14:00,62.2,56.0,30.04,South,170,0.0,-999.0,80,-99.99,,,0.00,weatherlink.com 1.10,2013-10-04 00:14:00,
2013-10-03 20:29:00,61.5,56.0,30.04,South,170,0.0,-999.0,81,-99.99,,,0.00,weatherlink.com 1.10,2013-10-04 00:29:00,
2013-10-03 20:44:00,60.7,55.0,30.04,South,170,0.0,-999.0,81,-99.99,,,0.00,weatherlink.com 1.10,2013-10-04 00:44:00,
2013-10-03 20:59:00,60.0,55.0,30.04,South,170,0.0,-999.0,83,-99.99,,,0.00,weatherlink.com 1.10,2013-10-04 00:59:00,
2013-10-03 21:14:00,59.1,54.0,30.04,South,170,0.0,-999.0,84,-99.99,,,0.00,weatherlink.com 1.10,2013-10-04 01:14:00,
2013-10-03 21:29:00,58.6,54.0,30.05,South,170,0.0,-999.0,85,-99.99,,,0.00,weatherlink.com 1.10,2013-10-04 01:29:00,
2013-10-03 21:45:00,58.2,54.0,30.05,South,170,0.0,-999.0,87,-99.99,,,0.00,weatherlink.com 1.10,2013-10-04 01:45:00,
2013-10-03 21:59:00,58.3,55.0,30.05,South,170,0.0,-999.0,88,-99.99,,,0.00,weatherlink.com 1.10,2013-10-04 01:59:00,
2013-10-03 22:14:00,58.4,55.0,30.05,South,170,0.0,-999.0,88,-99.99,,,0.00,weatherlink.com 1.10,2013-10-04 02:14:00,
2013-10-03 22:29:00,58.1,55.0,30.05,South,170,0.0,-999.0,88,-99.99,,,0.00,weatherlink.com 1.10,2013-10-04 02:29:00,
2013-10-03 22:44:00,58.0,55.0,30.05,South,170,0.0,-999.0,89,-99.99,,,0.00,weatherlink.com 1.10,2013-10-04 02:44:00,
2013-10-03 22:59:00,57.8,55.0,30.05,South,170,0.0,-999.0,89,-99.99,,,0.00,weatherlink.com 1.10,2013-10-04 02:59:00,
2013-10-03 23:14:00,57.2,54.0,30.05,South,170,0.0,-999.0,89,-99.99,,,0.00,weatherlink.com 1.10,2013-10-04 03:14:00,
2013-10-03 23:29:00,56.6,54.0,30.05,South,170,0.0,-999.0,89,-99.99,,,0.00,weatherlink.com 1.10,2013-10-04 03:29:00,
2013-10-03 23:45:00,56.2,53.0,30.05,South,170,0.0,-999.0,90,-99.99,,,0.00,weatherlink.com 1.10,2013-10-04 03:45:00,